This is the latest recevied weather packets stored in our database for station/object KC5TIL-3. If no packets are shown the sender has not sent any weather packets the latest 10 day(s).
| Time | Temp. | Humidity | Pressure | Rain* | Wind** | Luminosity | Snow |
|---|---|---|---|---|---|---|---|
| 1787521891 | 41.11° C | 10% | 1009.8 hPa | 0 mm | 3.13 m/s, 124° | - | - |
| 1787521593 | 40.56° C | 10% | 1009.8 hPa | 0 mm | 4.02 m/s, 201° | - | - |
| 1787521291 | 41.11° C | 10% | 1009.8 hPa | 0 mm | 2.24 m/s, 140° | - | - |
| 1787520993 | 40.56° C | 10% | 1009.8 hPa | 0 mm | 1.34 m/s, 180° | - | - |
| 1787520690 | 40.56° C | 10% | 1009.8 hPa | 0 mm | 4.47 m/s, 220° | - | - |
| 1787520388 | 41.11° C | 10% | 1009.8 hPa | 0 mm | 1.34 m/s, 221° | - | - |
| 1787520090 | 40.56° C | 10% | 1009.8 hPa | 0 mm | 2.24 m/s, 189° | - | - |
| 1787519792 | 41.11° C | 10% | 1009.8 hPa | 0 mm | 2.24 m/s, 185° | - | - |
| 1787519491 | 41.67° C | 10% | 1009.8 hPa | 0 mm | 1.79 m/s, 301° | - | - |
| 1787519193 | 41.11° C | 10% | 1009.8 hPa | 0 mm | 1.34 m/s, 283° | - | - |
| 1787518890 | 41.11° C | 10% | 1009.8 hPa | 0 mm | 1.79 m/s, 138° | - | - |
| 1787518588 | 40° C | 10% | 1009.8 hPa | 0 mm | 4.92 m/s, 203° | - | - |
| 1787518281 | 40.56° C | 10% | 1009.8 hPa | 0 mm | 4.47 m/s, 210° | - | - |
| 1787517978 | 41.67° C | 10% | 1010.8 hPa | 0 mm | 1.34 m/s, 109° | - | - |
| 1787517672 | 41.11° C | 10% | 1010.8 hPa | 0 mm | 2.24 m/s, 262° | - | - |
| 1787517374 | 41.11° C | 10% | 1010.8 hPa | 0 mm | 1.34 m/s, 222° | - | - |
| 1787517076 | 41.11° C | 10% | 1010.8 hPa | 0 mm | 2.24 m/s, 215° | - | - |
| 1787516774 | 40.56° C | 10% | 1010.8 hPa | 0 mm | 4.02 m/s, 189° | - | - |
| 1787516476 | 41.67° C | 10% | 1010.8 hPa | 0 mm | 1.34 m/s, 249° | - | - |
| 1787516159 | 41.67° C | 10% | 1010.8 hPa | 0 mm | 1.79 m/s, 147° | - | - |
| 1787515858 | 41.11° C | 10% | 1010.8 hPa | 0 mm | 2.24 m/s, 195° | - | - |
| 1787515560 | 41.11° C | 10% | 1010.8 hPa | 0 mm | 1.79 m/s, 143° | - | - |
| 1787515262 | 41.11° C | 10% | 1010.8 hPa | 0 mm | 1.79 m/s, 281° | - | - |
| 1787514960 | 40.56° C | 10% | 1010.8 hPa | 0 mm | 1.79 m/s, 278° | - | - |
| 1787514662 | 41.11° C | 10% | 1010.8 hPa | 0 mm | 0 m/s | - | - |
* Rain latest hour (hover to see other rain measurements)
** Current wind speed in m/s (hover to see current wind gust speed)